Time;durP1;ratioP1;P1;durP2;ratioP2;P2;SDS_P1;SDS_P2;PMS_P1;PMS_P2;Temp;Humidity;BMP_temperature;BMP_pressure;BME280_temperature;BME280_humidity;BME280_pressure;Samples;Min_cycle;Max_cycle;Signal;HPM_P1;HPM_P2
2022/02/13 00:03:56;;;;;;;16.15;9.15;;;;;;;-2.35;65.88;100495.75;10471276;28;20044;-71
2022/02/13 00:08:58;;;;;;;18.95;9.75;;;;;;;-2.50;66.02;100488.91;10471106;28;20048;-70
2022/02/13 00:13:59;;;;;;;20.10;9.82;;;;;;;-2.67;66.41;100499.97;10470818;28;20507;-69
2022/02/13 00:19:01;;;;;;;20.23;9.15;;;;;;;-2.69;66.59;100497.38;10470040;28;20549;-70
2022/02/13 00:24:23;;;;;;;15.32;8.68;;;;;;;-2.71;66.34;100503.38;10470253;28;20048;-71
2022/02/13 00:29:25;;;;;;;18.27;8.93;;;;;;;-2.68;66.30;100500.81;10468466;28;20062;-71
2022/02/13 00:34:27;;;;;;;15.40;8.75;;;;;;;-2.70;66.45;100488.00;10470369;28;20139;-70
2022/02/13 00:39:31;;;;;;;21.38;9.05;;;;;;;-2.61;66.33;100476.94;10470265;28;20044;-70
2022/02/13 00:44:32;;;;;;;18.60;10.02;;;;;;;-2.62;65.77;100488.88;10475733;28;20074;-70
2022/02/13 00:49:35;;;;;;;19.90;9.05;;;;;;;-2.77;66.21;100480.31;10470179;28;20577;-71
2022/02/13 00:54:36;;;;;;;21.33;9.18;;;;;;;-2.72;66.23;100484.59;10469579;28;20052;-70
2022/02/13 00:59:38;;;;;;;21.42;9.13;;;;;;;-2.66;66.19;100484.59;10469319;28;20044;-71
2022/02/13 01:04:40;;;;;;;18.40;8.75;;;;;;;-2.62;66.15;100491.44;10467997;28;20537;-71
2022/02/13 01:09:42;;;;;;;18.98;10.07;;;;;;;-2.68;66.18;100477.75;10468557;28;20539;-71
2022/02/13 01:14:44;;;;;;;17.33;10.57;;;;;;;-2.69;66.06;100469.22;10468280;28;20606;-70
2022/02/13 01:19:45;;;;;;;18.58;9.80;;;;;;;-2.85;66.16;100468.34;10468431;28;20127;-70
2022/02/13 01:24:47;;;;;;;19.40;10.98;;;;;;;-2.83;66.07;100460.66;10468492;28;20041;-70
2022/02/13 01:29:49;;;;;;;24.73;13.10;;;;;;;-2.91;66.24;100460.66;10467036;28;20135;-70
2022/02/13 01:34:50;;;;;;;38.95;16.55;;;;;;;-3.00;66.47;100452.94;10467111;28;20052;-70
2022/02/13 01:39:52;;;;;;;22.23;10.90;;;;;;;-2.98;66.35;100450.41;10466419;28;20051;-70
2022/02/13 01:44:55;;;;;;;25.90;12.25;;;;;;;-3.00;66.15;100452.09;10470709;28;20242;-70
2022/02/13 01:49:57;;;;;;;31.70;13.80;;;;;;;-3.14;66.60;100444.34;10467223;28;20136;-70
2022/02/13 01:54:59;;;;;;;21.00;11.60;;;;;;;-3.15;66.38;100439.25;10490751;28;20732;-70
2022/02/13 02:00:03;;;;;;;20.27;10.38;;;;;;;-3.12;66.59;100431.59;10470955;28;20074;-70
2022/02/13 02:05:05;;;;;;;16.00;9.45;;;;;;;-3.10;66.42;100430.72;10467436;28;20055;-70
2022/02/13 02:10:08;;;;;;;17.48;9.68;;;;;;;-3.05;66.43;100421.38;10466170;28;20139;-70
2022/02/13 02:15:10;;;;;;;18.08;10.02;;;;;;;-3.06;66.46;100411.16;10466842;28;20123;-70
2022/02/13 02:20:13;;;;;;;18.92;10.10;;;;;;;-3.20;66.27;100418.75;10467117;28;20044;-71
2022/02/13 02:25:15;;;;;;;21.27;9.52;;;;;;;-3.15;66.34;100417.09;10466675;28;20064;-70
2022/02/13 02:30:19;;;;;;;17.02;9.35;;;;;;;-3.13;66.37;100409.41;10466700;28;20052;-71
2022/02/13 02:35:21;;;;;;;20.45;9.80;;;;;;;-3.12;66.19;100400.91;10466993;28;20040;-71
2022/02/13 02:40:23;;;;;;;22.67;10.02;;;;;;;-3.18;66.28;100394.03;10466168;28;20523;-70
2022/02/13 02:45:24;;;;;;;21.25;11.50;;;;;;;-3.28;66.32;100376.13;10465019;28;20059;-71
2022/02/13 02:50:26;;;;;;;17.75;10.10;;;;;;;-3.29;66.40;100377.81;10479860;28;20051;-71
2022/02/13 02:55:28;;;;;;;19.55;10.18;;;;;;;-3.37;66.08;100374.38;10473755;28;20043;-69
2022/02/13 03:00:30;;;;;;;21.25;10.23;;;;;;;-3.46;66.47;100365.81;10472921;28;20450;-71
2022/02/13 03:05:32;;;;;;;17.45;10.45;;;;;;;-3.48;66.53;100362.41;10487715;28;20049;-71
2022/02/13 03:10:33;;;;;;;20.33;10.40;;;;;;;-3.52;66.36;100368.34;10479787;28;20466;-71
2022/02/13 03:15:35;;;;;;;21.70;10.32;;;;;;;-3.57;66.33;100354.72;10481112;28;20143;-70
2022/02/13 03:20:37;;;;;;;17.88;9.88;;;;;;;-3.54;66.37;100355.56;10480846;28;20052;-71
2022/02/13 03:25:39;;;;;;;15.88;9.40;;;;;;;-3.55;66.17;100353.88;10479993;28;20211;-70
2022/02/13 03:30:41;;;;;;;18.30;9.10;;;;;;;-3.58;66.09;100353.84;10479751;28;20389;-69
2022/02/13 03:35:43;;;;;;;17.23;9.57;;;;;;;-3.58;66.15;100363.22;10479657;28;20048;-70
2022/02/13 03:40:45;;;;;;;21.65;10.45;;;;;;;-3.62;66.19;100346.16;10480320;28;20157;-70
2022/02/13 03:45:46;;;;;;;18.38;9.50;;;;;;;-3.70;66.29;100321.44;10479779;28;20080;-69
2022/02/13 03:50:48;;;;;;;18.90;10.02;;;;;;;-3.67;66.25;100317.19;10479345;28;20072;-70
2022/02/13 03:55:50;;;;;;;17.08;9.40;;;;;;;-3.67;66.22;100300.16;10479762;28;20131;-70
2022/02/13 04:00:52;;;;;;;17.88;9.40;;;;;;;-3.92;65.98;100317.09;10476589;28;20508;-69
2022/02/13 04:05:55;;;;;;;19.58;10.20;;;;;;;-4.26;66.38;100330.50;10473215;28;20055;-69
2022/02/13 04:10:58;;;;;;;21.13;9.93;;;;;;;-4.20;66.57;100325.44;10471933;28;20127;-69
2022/02/13 04:16:00;;;;;;;19.05;9.80;;;;;;;-4.14;66.71;100320.41;10471800;28;20096;-69
2022/02/13 04:21:02;;;;;;;18.55;10.45;;;;;;;-4.02;66.42;100320.47;10471163;28;20052;-69
2022/02/13 04:26:03;;;;;;;19.02;9.57;;;;;;;-4.00;66.36;100307.69;10470916;28;20076;-70
2022/02/13 04:31:05;;;;;;;21.17;10.40;;;;;;;-3.99;66.29;100305.13;10470586;28;20196;-69
2022/02/13 04:36:08;;;;;;;17.35;9.82;;;;;;;-3.98;66.17;100299.19;10469973;28;20048;-69
2022/02/13 04:41:10;;;;;;;15.88;8.90;;;;;;;-3.95;66.15;100301.75;10469246;28;20142;-69
2022/02/13 04:46:11;;;;;;;16.33;9.25;;;;;;;-3.96;66.02;100305.16;10467825;28;20147;-70
2022/02/13 04:51:13;;;;;;;24.00;10.10;;;;;;;-3.99;66.15;100302.56;10469756;28;20281;-69
2022/02/13 04:56:16;;;;;;;20.27;9.68;;;;;;;-3.97;66.05;100292.34;10470165;28;20900;-70
2022/02/13 05:01:18;;;;;;;17.50;9.45;;;;;;;-3.96;65.96;100294.06;10469742;28;20048;-69
2022/02/13 05:06:19;;;;;;;16.48;9.23;;;;;;;-3.97;65.75;100283.00;10469899;28;20036;-70
2022/02/13 05:11:21;;;;;;;20.55;9.98;;;;;;;-3.96;65.70;100282.16;10468817;28;20051;-70
2022/02/13 05:16:23;;;;;;;19.13;10.15;;;;;;;-3.92;65.75;100270.25;10468449;28;20139;-70
2022/02/13 05:21:25;;;;;;;19.58;10.52;;;;;;;-3.99;65.64;100264.25;10467941;28;20101;-69
2022/02/13 05:26:26;;;;;;;17.90;9.55;;;;;;;-4.01;65.58;100258.28;10467170;28;20116;-70
2022/02/13 05:31:30;;;;;;;18.42;10.70;;;;;;;-4.05;65.62;100255.72;10475395;28;20336;-69
2022/02/13 05:36:31;;;;;;;16.17;10.45;;;;;;;-4.09;65.69;100249.75;10468346;28;20143;-69
2022/02/13 05:41:33;;;;;;;20.73;10.57;;;;;;;-4.12;65.73;100246.34;10469063;28;20135;-69
2022/02/13 05:46:35;;;;;;;22.27;10.68;;;;;;;-4.18;65.68;100239.47;10468108;28;20151;-71
2022/02/13 05:51:37;;;;;;;21.10;10.10;;;;;;;-4.22;65.70;100239.47;10494438;28;20080;-70
2022/02/13 05:56:41;;;;;;;24.15;11.88;;;;;;;-4.39;65.80;100229.19;10468653;28;20526;-69
2022/02/13 06:01:43;;;;;;;21.55;10.73;;;;;;;-4.43;66.01;100229.16;10467383;28;20550;-70
2022/02/13 06:06:44;;;;;;;21.90;11.40;;;;;;;-4.50;65.86;100228.25;10466621;28;20048;-70
2022/02/13 06:11:46;;;;;;;17.63;9.98;;;;;;;-4.56;66.15;100218.88;10468593;28;20040;-70
2022/02/13 06:16:48;;;;;;;18.90;10.55;;;;;;;-4.53;66.06;100220.59;10466950;28;20437;-70
2022/02/13 06:21:50;;;;;;;21.80;11.70;;;;;;;-4.50;65.97;100222.31;10467593;28;20527;-70
2022/02/13 06:26:51;;;;;;;23.33;10.55;;;;;;;-4.51;66.10;100224.00;10470612;28;20217;-69
2022/02/13 06:31:53;;;;;;;21.05;11.18;;;;;;;-4.42;66.15;100226.59;10475280;28;20045;-69
2022/02/13 06:36:55;;;;;;;21.45;11.80;;;;;;;-4.36;65.82;100216.41;10474945;28;20131;-69
2022/02/13 06:41:57;;;;;;;26.33;14.43;;;;;;;-4.34;65.69;100217.28;10473726;28;20049;-70
2022/02/13 06:46:59;;;;;;;23.15;12.00;;;;;;;-4.31;65.71;100224.97;10474943;28;20052;-69
2022/02/13 06:52:00;;;;;;;19.60;11.73;;;;;;;-4.24;65.56;100228.41;10474155;28;20056;-70
2022/02/13 06:57:02;;;;;;;26.77;11.63;;;;;;;-4.15;65.22;100223.31;10474807;28;20041;-70
2022/02/13 07:02:05;;;;;;;26.33;12.23;;;;;;;-4.07;65.17;100225.06;10474115;28;20114;-70
2022/02/13 07:07:08;;;;;;;32.13;13.27;;;;;;;-4.01;65.21;100217.41;10473613;28;20055;-70
2022/02/13 07:12:12;;;;;;;25.65;12.15;;;;;;;-3.93;65.02;100202.97;10474244;28;20058;-71
2022/02/13 07:17:14;;;;;;;22.33;12.40;;;;;;;-3.97;64.47;100215.72;10473958;28;20055;-70
2022/02/13 07:22:16;;;;;;;28.40;14.43;;;;;;;-4.13;65.20;100207.16;10474359;28;20048;-70
2022/02/13 07:27:17;;;;;;;27.65;12.63;;;;;;;-4.04;65.26;100204.66;10471987;28;20053;-72
2022/02/13 07:32:19;;;;;;;27.00;14.48;;;;;;;-3.92;65.25;100204.69;10482108;28;20636;-71
2022/02/13 07:37:21;;;;;;;25.40;12.35;;;;;;;-3.87;64.97;100197.88;10473034;28;20044;-71
2022/02/13 07:42:23;;;;;;;18.70;10.73;;;;;;;-3.81;64.83;100194.47;10472748;28;20048;-71
2022/02/13 07:47:25;;;;;;;21.50;10.98;;;;;;;-3.63;64.93;100183.44;10470767;28;20483;-71
2022/02/13 07:52:32;;;;;;;24.27;12.00;;;;;;;-3.38;64.45;100187.69;10473743;28;20088;-72
2022/02/13 07:57:33;;;;;;;26.67;14.23;;;;;;;-3.21;64.44;100193.69;10454229;28;20094;-71
2022/02/13 08:02:38;;;;;;;21.77;12.27;;;;;;;-2.91;64.38;100181.72;10472128;28;20049;-71
2022/02/13 08:07:46;;;;;;;22.50;12.68;;;;;;;-2.57;64.25;100182.47;10472458;28;20402;-71
2022/02/13 08:12:48;;;;;;;22.63;14.95;;;;;;;-2.41;64.03;100173.06;10467599;28;20067;-71
2022/02/13 08:17:50;;;;;;;28.00;14.20;;;;;;;-2.26;63.89;100168.72;10471152;28;20074;-72
2022/02/13 08:22:52;;;;;;;22.73;13.60;;;;;;;-2.04;63.73;100175.44;10471611;28;20546;-72
2022/02/13 08:27:53;;;;;;;26.48;13.80;;;;;;;-1.87;63.73;100172.78;10471724;28;20054;-71
2022/02/13 08:32:58;;;;;;;24.95;14.40;;;;;;;-1.39;63.40;100161.34;10469933;28;20068;-71
2022/02/13 08:38:00;;;;;;;27.80;14.32;;;;;;;-1.03;63.07;100135.38;10472119;28;20466;-71
2022/02/13 08:43:02;;;;;;;25.02;16.25;;;;;;;-0.83;62.38;100135.16;10469061;28;20059;-71
2022/02/13 08:48:05;;;;;;;29.48;17.75;;;;;;;-0.85;62.59;100140.31;10469964;28;20115;-70
2022/02/13 08:53:07;;;;;;;31.83;17.38;;;;;;;-0.63;61.90;100128.94;10469742;28;20064;-71
2022/02/13 08:58:09;;;;;;;27.20;16.58;;;;;;;-0.53;62.31;100134.81;10470446;28;20071;-71
2022/02/13 09:03:11;;;;;;;24.40;14.90;;;;;;;-0.16;62.01;100130.06;10470242;28;20066;-70
2022/02/13 09:08:12;;;;;;;29.02;16.33;;;;;;;0.17;61.88;100121.88;10469045;28;20159;-70
2022/02/13 09:13:14;;;;;;;25.02;15.68;;;;;;;0.52;61.34;100102.44;10469533;28;20054;-71
2022/02/13 09:18:16;;;;;;;23.08;15.68;;;;;;;0.63;61.27;100101.44;10469215;28;20052;-70
2022/02/13 09:23:18;;;;;;;25.35;16.33;;;;;;;0.60;61.46;100091.19;10468479;28;20041;-70
2022/02/13 09:28:19;;;;;;;27.63;17.27;;;;;;;0.42;61.86;100095.75;10469189;28;20044;-70
2022/02/13 09:33:23;;;;;;;25.52;17.25;;;;;;;0.51;61.74;100085.31;10468623;28;20139;-71
2022/02/13 09:38:25;;;;;;;26.10;16.58;;;;;;;0.80;61.60;100086.53;10467465;28;20137;-71
2022/02/13 09:43:27;;;;;;;24.45;14.82;;;;;;;0.99;61.54;100093.88;10468022;28;20059;-71
2022/02/13 09:48:28;;;;;;;25.10;14.95;;;;;;;1.24;61.20;100082.25;10469023;28;20044;-69
2022/02/13 09:53:34;;;;;;;22.92;15.05;;;;;;;1.55;61.08;100079.03;10467207;28;20052;-69
2022/02/13 09:58:36;;;;;;;23.80;14.27;;;;;;;1.45;61.04;100067.22;10468903;28;20052;-69
2022/02/13 10:03:40;;;;;;;26.52;16.77;;;;;;;1.69;60.98;100057.25;10466216;28;20044;-69
2022/02/13 10:08:42;;;;;;;25.95;15.98;;;;;;;1.88;60.40;100061.13;10467408;28;20040;-68
2022/02/13 10:13:52;;;;;;;31.05;16.10;;;;;;;1.81;60.42;100058.69;10466742;28;20412;-70
2022/02/13 10:19:07;;;;;;;22.38;14.10;;;;;;;2.00;60.01;100049.69;10468244;28;20167;-70
2022/02/13 10:24:30;;;;;;;19.42;12.60;;;;;;;2.33;59.02;100037.72;10467013;28;20083;-69
2022/02/13 10:29:35;;;;;;;20.70;12.30;;;;;;;2.72;58.81;100040.13;10466546;28;20072;-69
2022/02/13 10:34:37;;;;;;;19.45;12.65;;;;;;;2.87;58.56;100039.72;10468617;28;20055;-69
2022/02/13 10:39:47;;;;;;;20.92;12.82;;;;;;;3.13;57.28;100022.66;10470403;28;20052;-69
2022/02/13 10:44:49;;;;;;;21.45;12.60;;;;;;;3.43;58.06;100016.59;10467056;28;20546;-69
2022/02/13 10:49:52;;;;;;;21.17;12.60;;;;;;;3.78;57.44;99996.53;10467633;28;20050;-70
2022/02/13 10:54:54;;;;;;;24.15;13.73;;;;;;;3.90;56.88;99992.78;10468544;28;20048;-69
2022/02/13 10:59:56;;;;;;;19.33;12.27;;;;;;;4.03;56.38;99980.28;10468199;28;20743;-69
2022/02/13 11:04:58;;;;;;;15.57;10.98;;;;;;;4.16;55.51;99978.97;10467929;28;20132;-70
2022/02/13 11:10:01;;;;;;;19.50;11.98;;;;;;;4.39;55.33;99956.59;10467271;28;20135;-70
2022/02/13 11:15:20;;;;;;;19.33;11.07;;;;;;;4.38;53.85;99948.88;10471431;28;20055;-70
2022/02/13 11:20:22;;;;;;;17.48;11.48;;;;;;;4.40;54.94;99942.75;10475476;28;20047;-70
2022/02/13 11:25:50;;;;;;;19.85;11.80;;;;;;;4.47;54.65;99925.28;10482385;28;20091;-65
2022/02/13 11:30:53;;;;;;;24.42;12.63;;;;;;;4.65;54.72;99922.03;10459137;28;20052;-66
2022/02/13 11:36:08;;;;;;;19.60;11.43;;;;;;;4.93;54.60;99906.31;10467044;28;20506;-66
2022/02/13 11:41:10;;;;;;;19.20;11.40;;;;;;;5.12;54.04;99891.78;10462593;28;20059;-66
2022/02/13 11:46:13;;;;;;;17.63;10.80;;;;;;;5.44;54.33;99886.16;10465915;28;20523;-66
2022/02/13 11:51:15;;;;;;;18.17;11.45;;;;;;;5.52;53.84;99877.19;10484980;28;20056;-66
2022/02/13 11:56:28;;;;;;;19.83;11.57;;;;;;;5.86;53.39;99850.69;10469143;28;20040;-66
2022/02/13 12:01:36;;;;;;;17.55;10.75;;;;;;;5.93;52.91;99851.28;10463434;28;20192;-66
2022/02/13 12:06:38;;;;;;;21.05;10.57;;;;;;;6.12;53.22;99834.03;10476150;28;20139;-66
2022/02/13 12:11:42;;;;;;;17.00;10.73;;;;;;;6.27;53.12;99815.19;10468912;28;20159;-65
2022/02/13 12:17:00;;;;;;;17.50;10.50;;;;;;;6.43;52.05;99807.59;10468870;28;20090;-66
2022/02/13 12:22:13;;;;;;;18.73;10.25;;;;;;;6.57;51.99;99792.22;10469066;28;20048;-66
2022/02/13 12:27:15;;;;;;;17.98;10.55;;;;;;;6.84;52.34;99786.59;10469451;28;20052;-66
2022/02/13 12:32:18;;;;;;;17.85;10.57;;;;;;;7.07;51.86;99777.69;10469179;28;20092;-66
2022/02/13 12:37:21;;;;;;;21.10;11.18;;;;;;;7.25;51.90;99773.34;10469292;28;20048;-66
2022/02/13 12:42:38;;;;;;;16.30;10.18;;;;;;;7.44;50.90;99767.19;10469466;28;20128;-66
2022/02/13 12:47:43;;;;;;;17.92;10.15;;;;;;;7.77;51.01;99765.47;10466139;28;20065;-66
2022/02/13 12:52:45;;;;;;;18.27;8.60;;;;;;;7.94;50.71;99757.66;10462451;28;20055;-67
2022/02/13 12:57:51;;;;;;;18.83;8.88;;;;;;;8.20;50.98;99742.47;10470363;28;20040;-66
2022/02/13 13:02:59;;;;;;;15.70;8.52;;;;;;;8.19;50.12;99733.81;10467230;28;20071;-66
2022/02/13 13:08:20;;;;;;;17.30;8.90;;;;;;;8.24;50.21;99723.97;10468918;28;20044;-66
2022/02/13 13:13:28;;;;;;;;;;;;;;;8.27;50.16;99709.94;10400697;28;20317;-67
2022/02/13 13:18:52;;;;;;;14.65;8.43;;;;;;;8.60;49.65;99692.50;10307051;28;20293;-66
2022/02/13 13:24:00;;;;;;;15.20;7.90;;;;;;;8.74;49.41;99693.41;10320229;28;20046;-66
2022/02/13 13:29:22;;;;;;;11.00;7.00;;;;;;;8.78;48.88;99683.63;10306457;28;20483;-67
2022/02/13 13:34:25;;;;;;;11.80;6.57;;;;;;;8.93;50.06;99672.34;10307227;28;20054;-66
2022/02/13 13:39:34;;;;;;;15.45;6.85;;;;;;;9.07;49.86;99671.56;10314159;28;20144;-66
2022/02/13 13:44:36;;;;;;;11.77;6.72;;;;;;;9.07;49.95;99663.72;10305945;28;20058;-67
2022/02/13 13:49:38;;;;;;;12.82;6.50;;;;;;;9.10;49.97;99653.94;10306419;28;20054;-66
2022/02/13 13:54:39;;;;;;;12.68;7.20;;;;;;;9.11;49.88;99634.78;10332078;28;20137;-66
2022/02/13 13:59:41;;;;;;;14.77;7.47;;;;;;;9.00;50.00;99629.31;10323160;28;20050;-67
2022/02/13 14:04:43;;;;;;;14.68;7.45;;;;;;;9.13;49.89;99630.31;10307882;28;20050;-67
2022/02/13 14:09:45;;;;;;;14.95;7.68;;;;;;;9.02;49.95;99617.03;10305364;28;20066;-67
2022/02/13 14:14:47;;;;;;;14.38;7.53;;;;;;;8.91;49.88;99609.00;10302623;28;20050;-66
2022/02/13 14:19:53;;;;;;;15.48;7.53;;;;;;;8.96;49.72;99604.34;10324909;28;20618;-67
2022/02/13 14:24:55;;;;;;;12.82;7.53;;;;;;;9.17;49.22;99581.38;10302057;28;20055;-67
2022/02/13 14:29:56;;;;;;;13.38;7.53;;;;;;;9.23;48.75;99570.56;10307245;28;20060;-67
2022/02/13 14:34:59;;;;;;;12.68;6.65;;;;;;;9.19;48.96;99564.72;10311654;28;20051;-67
2022/02/13 14:40:01;;;;;;;13.45;6.13;;;;;;;9.21;49.21;99562.84;10319310;28;20140;-67
2022/02/13 14:45:03;;;;;;;12.90;6.68;;;;;;;9.14;48.79;99545.88;10304798;28;20080;-67
2022/02/13 14:50:06;;;;;;;16.73;6.78;;;;;;;8.96;48.93;99541.75;10324018;28;20369;-67
2022/02/13 14:55:08;;;;;;;12.82;6.60;;;;;;;8.81;49.24;99537.47;10312117;28;20308;-67
2022/02/13 15:00:13;;;;;;;14.65;7.00;;;;;;;8.79;49.42;99532.31;10321295;28;20482;-67
2022/02/13 15:05:15;;;;;;;17.33;9.88;;;;;;;8.51;50.21;99518.38;10317065;28;20054;-67
2022/02/13 15:10:16;;;;;;;18.55;10.45;;;;;;;8.14;50.90;99524.84;10309515;28;20060;-67
2022/02/13 15:15:18;;;;;;;17.92;9.57;;;;;;;7.94;51.46;99520.72;10320814;28;20051;-67
2022/02/13 15:20:20;;;;;;;18.13;10.43;;;;;;;7.84;51.65;99526.50;10307558;28;20042;-67
2022/02/13 15:25:23;;;;;;;18.98;10.55;;;;;;;7.88;51.54;99513.25;10324764;28;20487;-67
2022/02/13 15:30:25;;;;;;;16.85;10.35;;;;;;;7.80;51.80;99507.63;10307968;28;20140;-67
2022/02/13 15:35:27;;;;;;;16.63;10.07;;;;;;;7.79;51.88;99505.91;10308131;28;20146;-67
2022/02/13 15:40:31;;;;;;;21.42;10.25;;;;;;;7.83;52.06;99491.00;10305765;28;20050;-67
2022/02/13 15:45:33;;;;;;;15.38;10.18;;;;;;;7.76;52.38;99480.09;10321728;28;20161;-67
2022/02/13 15:50:35;;;;;;;21.83;11.20;;;;;;;7.62;52.51;99469.59;10307614;28;20513;-66
2022/02/13 15:55:38;;;;;;;17.98;10.80;;;;;;;7.52;52.64;99455.41;10309355;28;20058;-66
2022/02/13 16:00:40;;;;;;;18.27;10.52;;;;;;;7.42;53.00;99445.59;10308385;28;20057;-66
2022/02/13 16:05:41;;;;;;;17.73;10.73;;;;;;;7.19;53.33;99446.81;10307734;28;20746;-67
2022/02/13 16:10:43;;;;;;;17.58;10.73;;;;;;;7.12;53.44;99438.50;10304995;28;20054;-66
2022/02/13 16:15:45;;;;;;;21.63;11.45;;;;;;;6.97;53.77;99434.13;10307168;28;20669;-66
2022/02/13 16:20:47;;;;;;;21.80;9.95;;;;;;;6.82;54.05;99427.13;10309524;28;20574;-66
2022/02/13 16:25:49;;;;;;;15.80;10.68;;;;;;;6.62;54.44;99416.94;10318508;28;20050;-66
2022/02/13 16:30:50;;;;;;;19.95;11.32;;;;;;;6.47;54.73;99409.91;10311306;28;20058;-66
2022/02/13 16:35:52;;;;;;;16.77;10.52;;;;;;;6.27;55.22;99408.34;10320261;28;20268;-67
2022/02/13 16:40:56;;;;;;;16.50;10.85;;;;;;;6.18;55.39;99394.97;10304948;28;20046;-66
2022/02/13 16:45:58;;;;;;;17.95;10.80;;;;;;;5.97;55.72;99386.50;10311500;28;20132;-66
2022/02/13 16:50:59;;;;;;;18.33;10.65;;;;;;;5.82;56.13;99382.03;10317740;28;20071;-66
2022/02/13 16:56:01;;;;;;;19.70;11.63;;;;;;;5.72;56.52;99377.38;10311465;28;20847;-66
2022/02/13 17:01:05;;;;;;;19.23;10.93;;;;;;;5.55;56.78;99378.22;10304713;28;20047;-66
2022/02/13 17:06:08;;;;;;;19.10;10.82;;;;;;;5.28;57.44;99374.31;10318988;28;20058;-66
2022/02/13 17:11:10;;;;;;;20.20;10.95;;;;;;;5.21;57.56;99372.91;10315452;28;20138;-65
2022/02/13 17:16:13;;;;;;;18.65;11.93;;;;;;;5.03;57.80;99364.25;10311763;28;20050;-66
2022/02/13 17:21:15;;;;;;;19.02;12.65;;;;;;;4.83;57.94;99360.91;10307484;28;20043;-66
2022/02/13 17:26:17;;;;;;;23.75;14.07;;;;;;;4.64;58.76;99363.47;10312321;28;20609;-66
2022/02/13 17:31:19;;;;;;;25.20;14.82;;;;;;;4.51;59.29;99363.19;10324902;28;20058;-66
2022/02/13 17:36:24;;;;;;;22.20;14.10;;;;;;;4.38;59.42;99369.81;10313878;28;20050;-65
2022/02/13 17:41:26;;;;;;;21.77;14.40;;;;;;;4.24;59.79;99360.94;10315070;28;20129;-69
2022/02/13 17:46:32;;;;;;;26.52;16.25;;;;;;;4.19;60.37;99357.75;10316487;28;20054;-70
2022/02/13 17:51:34;;;;;;;21.67;13.40;;;;;;;4.14;60.35;99365.69;10304768;28;20061;-70
2022/02/13 17:56:36;;;;;;;28.13;16.10;;;;;;;4.13;60.38;99355.41;10301121;28;20907;-70
2022/02/13 18:01:45;;;;;;;22.63;13.65;;;;;;;3.99;60.62;99348.22;10304556;28;20499;-70
2022/02/13 18:06:47;;;;;;;21.88;14.60;;;;;;;3.97;60.47;99341.41;10314958;28;20347;-70
2022/02/13 18:11:48;;;;;;;24.00;14.43;;;;;;;3.86;60.65;99340.13;10314044;28;20058;-70
2022/02/13 18:16:50;;;;;;;26.83;14.65;;;;;;;3.67;61.12;99331.44;10300554;28;20050;-70
2022/02/13 18:21:52;;;;;;;24.00;14.98;;;;;;;3.63;61.16;99336.78;10304881;28;20081;-70
2022/02/13 18:26:54;;;;;;;25.52;15.68;;;;;;;3.43;61.47;99329.84;10330343;28;20060;-70
2022/02/13 18:31:59;;;;;;;25.02;14.85;;;;;;;3.31;61.86;99324.31;10309880;28;20054;-70
2022/02/13 18:37:01;;;;;;;27.63;17.52;;;;;;;3.20;62.02;99317.00;10310839;28;20053;-71
2022/02/13 18:42:04;;;;;;;28.58;18.23;;;;;;;3.11;62.19;99314.75;10338312;28;20052;-70
2022/02/13 18:47:06;;;;;;;23.45;16.05;;;;;;;2.98;62.83;99296.34;10310937;28;20050;-70
2022/02/13 18:52:08;;;;;;;29.67;16.73;;;;;;;2.84;62.84;99293.47;10308179;28;20061;-70
2022/02/13 18:57:10;;;;;;;24.98;15.98;;;;;;;2.75;63.06;99288.63;10318470;28;20297;-69
2022/02/13 19:02:12;;;;;;;22.25;13.80;;;;;;;2.70;63.28;99274.22;10323463;28;20479;-69
2022/02/13 19:07:15;;;;;;;42.67;26.70;;;;;;;2.62;63.39;99274.50;10315349;28;20152;-70
2022/02/13 19:12:17;;;;;;;27.88;15.90;;;;;;;2.64;63.73;99259.78;10320706;28;20079;-71
2022/02/13 19:17:20;;;;;;;30.85;15.02;;;;;;;2.49;63.58;99260.41;10302628;28;20046;-70
2022/02/13 19:22:22;;;;;;;33.28;16.95;;;;;;;2.46;63.16;99250.16;10330548;28;20060;-70
2022/02/13 19:32:44;;;;;;;25.00;14.27;;;;;;;2.38;64.06;99226.41;10302383;28;20049;-70
2022/02/13 19:37:46;;;;;;;23.23;13.45;;;;;;;2.43;63.76;99221.91;10307640;28;20414;-69
2022/02/13 19:42:48;;;;;;;23.38;14.18;;;;;;;2.39;63.88;99227.25;10308704;28;20172;-70
2022/02/13 19:47:49;;;;;;;24.35;15.13;;;;;;;2.33;64.10;99227.47;10309275;28;20133;-69
2022/02/13 19:52:52;;;;;;;27.73;16.17;;;;;;;2.27;63.60;99228.56;10307149;28;20046;-70
2022/02/13 19:57:54;;;;;;;31.42;17.90;;;;;;;2.23;64.08;99221.84;10307363;28;20415;-69
2022/02/13 20:02:55;;;;;;;23.25;15.32;;;;;;;2.24;64.14;99215.75;10312862;28;20575;-70
2022/02/13 20:07:57;;;;;;;24.52;16.50;;;;;;;2.26;63.98;99211.38;10307337;28;20508;-70
2022/02/13 20:12:59;;;;;;;25.85;13.57;;;;;;;2.29;64.08;99208.69;10313619;28;20491;-70
2022/02/13 20:18:03;;;;;;;26.10;17.67;;;;;;;2.20;64.11;99206.44;10324065;28;20494;-69
2022/02/13 20:23:06;;;;;;;26.38;15.10;;;;;;;2.04;64.08;99201.03;10311276;28;20054;-69
2022/02/13 20:28:08;;;;;;;22.35;13.50;;;;;;;2.08;64.01;99192.28;10308867;28;20161;-69
2022/02/13 20:33:11;;;;;;;21.73;14.05;;;;;;;1.96;64.46;99189.31;10307813;28;20054;-69
2022/02/13 20:38:13;;;;;;;29.58;20.30;;;;;;;1.93;64.25;99184.28;10308737;28;20346;-70
2022/02/13 20:43:15;;;;;;;24.40;15.98;;;;;;;1.89;64.49;99173.22;10312486;28;20088;-71
2022/02/13 20:48:17;;;;;;;23.48;15.35;;;;;;;1.82;64.34;99174.34;10312119;28;20132;-70
2022/02/13 20:53:21;;;;;;;28.17;17.67;;;;;;;1.79;64.76;99176.19;10312643;28;20058;-69
2022/02/13 20:58:23;;;;;;;26.23;17.27;;;;;;;1.70;65.00;99173.97;10310301;28;20138;-70
2022/02/13 21:03:25;;;;;;;27.85;15.68;;;;;;;1.61;65.59;99163.97;10307708;28;20059;-70
2022/02/13 21:08:27;;;;;;;24.85;13.88;;;;;;;1.79;65.37;99148.66;10306396;28;20077;-70
2022/02/13 21:13:30;;;;;;;25.08;15.25;;;;;;;1.85;64.84;99150.19;10336195;28;20053;-71
2022/02/13 21:18:32;;;;;;;20.38;13.02;;;;;;;1.84;64.92;99140.78;10307494;28;20463;-71
2022/02/13 21:23:34;;;;;;;16.15;10.50;;;;;;;1.92;65.03;99123.28;10305428;28;20161;-70
2022/02/13 21:28:36;;;;;;;18.02;11.45;;;;;;;2.02;64.52;99111.72;10307616;28;20133;-72
2022/02/13 21:33:38;;;;;;;26.58;14.48;;;;;;;1.93;64.45;99119.81;10307849;28;20421;-72
2022/02/13 21:38:40;;;;;;;24.58;14.30;;;;;;;1.87;64.69;99104.59;10314391;28;20050;-71
2022/02/13 21:43:42;;;;;;;21.23;14.32;;;;;;;1.90;64.56;99099.31;10309318;28;20145;-71
2022/02/13 21:48:44;;;;;;;26.48;13.85;;;;;;;1.90;64.65;99091.56;10305833;28;20046;-72
2022/02/13 21:53:46;;;;;;;20.67;12.80;;;;;;;2.04;64.47;99090.16;10307760;28;20049;-71
2022/02/13 21:58:53;;;;;;;25.35;14.50;;;;;;;1.96;64.40;99089.59;10308336;28;20570;-71
2022/02/13 22:03:54;;;;;;;27.65;14.65;;;;;;;1.97;64.47;99098.19;10313237;28;20104;-71
2022/02/13 22:08:56;;;;;;;29.90;17.73;;;;;;;2.14;64.37;99088.03;10314186;28;20054;-71
2022/02/13 22:13:58;;;;;;;25.02;12.63;;;;;;;2.41;64.30;99075.78;10306812;28;20482;-71
2022/02/13 22:19:00;;;;;;;23.13;13.60;;;;;;;2.69;64.11;99076.34;10308328;28;20089;-70
2022/02/13 22:24:02;;;;;;;19.80;11.82;;;;;;;2.88;63.44;99083.28;10305063;28;20400;-71
2022/02/13 22:29:04;;;;;;;19.70;12.25;;;;;;;2.68;63.71;99066.94;10312474;28;20050;-71
2022/02/13 22:34:05;;;;;;;19.67;11.73;;;;;;;2.82;63.45;99065.44;10305349;28;20043;-71
2022/02/13 22:39:09;;;;;;;18.75;11.32;;;;;;;2.87;62.95;99071.25;10303927;28;20343;-72
2022/02/13 22:44:11;;;;;;;18.17;10.30;;;;;;;3.07;62.88;99072.16;10303097;28;20118;-71
2022/02/13 22:49:14;;;;;;;20.65;10.57;;;;;;;3.13;62.58;99059.78;10304533;28;20161;-72
2022/02/13 22:54:15;;;;;;;30.02;18.95;;;;;;;2.90;62.33;99054.78;10313646;28;20070;-71
2022/02/13 22:59:17;;;;;;;17.60;9.43;;;;;;;2.81;62.89;99043.09;10304202;28;20061;-71
2022/02/13 23:15:00;;;;;;;14.95;9.30;;;;;;;3.02;62.44;99026.69;10312014;28;20054;-72
2022/02/13 23:20:02;;;;;;;17.17;9.20;;;;;;;2.98;62.40;99027.72;10310960;28;20153;-71